sensor_id;sensor_type;location;lat;lon;timestamp;P1;durP1;ratioP1;P2;durP2;ratioP2
31676;SDS011;18385;51.572;6.578;2023-09-08T00:02:22;4.63;;;2.60;;
31676;SDS011;18385;51.572;6.578;2023-09-08T00:04:51;6.78;;;2.60;;
31676;SDS011;18385;51.572;6.578;2023-09-08T00:07:17;3.83;;;2.03;;
31676;SDS011;18385;51.572;6.578;2023-09-08T00:09:43;4.88;;;2.20;;
31676;SDS011;18385;51.572;6.578;2023-09-08T00:12:08;4.20;;;2.38;;
31676;SDS011;18385;51.572;6.578;2023-09-08T00:14:34;5.32;;;2.42;;
31676;SDS011;18385;51.572;6.578;2023-09-08T00:17:00;4.80;;;2.47;;
31676;SDS011;18385;51.572;6.578;2023-09-08T00:19:25;6.32;;;2.92;;
31676;SDS011;18385;51.572;6.578;2023-09-08T00:21:51;6.95;;;2.38;;
31676;SDS011;18385;51.572;6.578;2023-09-08T00:26:44;4.38;;;2.15;;
31676;SDS011;18385;51.572;6.578;2023-09-08T00:29:10;6.15;;;2.35;;
31676;SDS011;18385;51.572;6.578;2023-09-08T00:31:35;4.75;;;2.22;;
31676;SDS011;18385;51.572;6.578;2023-09-08T00:34:01;4.43;;;2.40;;
31676;SDS011;18385;51.572;6.578;2023-09-08T00:36:27;6.43;;;2.30;;
31676;SDS011;18385;51.572;6.578;2023-09-08T00:38:52;5.28;;;2.50;;
31676;SDS011;18385;51.572;6.578;2023-09-08T00:41:18;3.97;;;2.22;;
31676;SDS011;18385;51.572;6.578;2023-09-08T00:43:44;3.40;;;1.98;;
31676;SDS011;18385;51.572;6.578;2023-09-08T00:46:09;4.55;;;2.55;;
31676;SDS011;18385;51.572;6.578;2023-09-08T00:48:36;5.03;;;1.98;;
31676;SDS011;18385;51.572;6.578;2023-09-08T00:51:03;6.28;;;2.08;;
31676;SDS011;18385;51.572;6.578;2023-09-08T00:53:30;4.65;;;2.63;;
31676;SDS011;18385;51.572;6.578;2023-09-08T00:55:56;5.53;;;2.08;;
31676;SDS011;18385;51.572;6.578;2023-09-08T00:58:24;5.55;;;1.98;;
31676;SDS011;18385;51.572;6.578;2023-09-08T01:00:50;4.18;;;2.25;;
31676;SDS011;18385;51.572;6.578;2023-09-08T01:03:16;3.90;;;2.05;;
31676;SDS011;18385;51.572;6.578;2023-09-08T01:05:41;4.00;;;2.20;;
31676;SDS011;18385;51.572;6.578;2023-09-08T01:08:08;6.00;;;2.38;;
31676;SDS011;18385;51.572;6.578;2023-09-08T01:10:34;3.75;;;2.25;;
31676;SDS011;18385;51.572;6.578;2023-09-08T01:13:02;3.20;;;1.90;;
31676;SDS011;18385;51.572;6.578;2023-09-08T01:15:28;3.88;;;2.28;;
31676;SDS011;18385;51.572;6.578;2023-09-08T01:17:53;3.33;;;2.05;;
31676;SDS011;18385;51.572;6.578;2023-09-08T01:20:24;3.95;;;2.50;;
31676;SDS011;18385;51.572;6.578;2023-09-08T01:23:11;7.82;;;2.40;;
31676;SDS011;18385;51.572;6.578;2023-09-08T01:26:07;6.70;;;2.20;;
31676;SDS011;18385;51.572;6.578;2023-09-08T01:28:35;5.00;;;2.35;;
31676;SDS011;18385;51.572;6.578;2023-09-08T01:31:02;5.38;;;2.28;;
31676;SDS011;18385;51.572;6.578;2023-09-08T01:33:29;3.45;;;2.35;;
31676;SDS011;18385;51.572;6.578;2023-09-08T01:35:55;4.03;;;2.40;;
31676;SDS011;18385;51.572;6.578;2023-09-08T01:38:21;4.50;;;2.20;;
31676;SDS011;18385;51.572;6.578;2023-09-08T01:40:47;4.03;;;2.30;;
31676;SDS011;18385;51.572;6.578;2023-09-08T01:43:12;4.05;;;2.28;;
31676;SDS011;18385;51.572;6.578;2023-09-08T01:45:38;4.90;;;2.55;;
31676;SDS011;18385;51.572;6.578;2023-09-08T01:48:04;7.07;;;2.40;;
31676;SDS011;18385;51.572;6.578;2023-09-08T01:50:29;4.20;;;2.30;;
31676;SDS011;18385;51.572;6.578;2023-09-08T01:52:55;3.67;;;2.38;;
31676;SDS011;18385;51.572;6.578;2023-09-08T01:55:21;3.55;;;2.10;;
31676;SDS011;18385;51.572;6.578;2023-09-08T01:57:48;6.90;;;3.10;;
31676;SDS011;18385;51.572;6.578;2023-09-08T02:00:14;3.60;;;2.42;;
31676;SDS011;18385;51.572;6.578;2023-09-08T02:02:39;4.43;;;2.45;;
31676;SDS011;18385;51.572;6.578;2023-09-08T02:05:06;5.90;;;2.50;;
31676;SDS011;18385;51.572;6.578;2023-09-08T02:07:32;6.20;;;2.78;;
31676;SDS011;18385;51.572;6.578;2023-09-08T02:09:57;5.50;;;2.78;;
31676;SDS011;18385;51.572;6.578;2023-09-08T02:12:23;4.20;;;2.58;;
31676;SDS011;18385;51.572;6.578;2023-09-08T02:14:49;4.07;;;2.40;;
31676;SDS011;18385;51.572;6.578;2023-09-08T02:17:14;3.30;;;2.20;;
31676;SDS011;18385;51.572;6.578;2023-09-08T02:19:40;5.53;;;2.55;;
31676;SDS011;18385;51.572;6.578;2023-09-08T02:22:05;4.15;;;2.30;;
31676;SDS011;18385;51.572;6.578;2023-09-08T02:24:31;4.47;;;2.28;;
31676;SDS011;18385;51.572;6.578;2023-09-08T02:26:57;4.75;;;2.35;;
31676;SDS011;18385;51.572;6.578;2023-09-08T02:29:23;6.93;;;2.63;;
31676;SDS011;18385;51.572;6.578;2023-09-08T02:31:49;5.00;;;2.85;;
31676;SDS011;18385;51.572;6.578;2023-09-08T02:34:15;3.72;;;2.45;;
31676;SDS011;18385;51.572;6.578;2023-09-08T02:36:42;5.75;;;2.67;;
31676;SDS011;18385;51.572;6.578;2023-09-08T02:39:07;3.80;;;2.10;;
31676;SDS011;18385;51.572;6.578;2023-09-08T02:41:33;6.35;;;2.55;;
31676;SDS011;18385;51.572;6.578;2023-09-08T02:44:00;4.20;;;2.45;;
31676;SDS011;18385;51.572;6.578;2023-09-08T02:46:25;5.65;;;2.80;;
31676;SDS011;18385;51.572;6.578;2023-09-08T02:48:52;6.15;;;2.33;;
31676;SDS011;18385;51.572;6.578;2023-09-08T02:51:18;4.28;;;2.17;;
31676;SDS011;18385;51.572;6.578;2023-09-08T02:53:44;4.93;;;2.75;;
31676;SDS011;18385;51.572;6.578;2023-09-08T02:56:09;5.63;;;3.05;;
31676;SDS011;18385;51.572;6.578;2023-09-08T02:58:35;4.88;;;2.97;;
31676;SDS011;18385;51.572;6.578;2023-09-08T03:01:11;7.80;;;2.95;;
31676;SDS011;18385;51.572;6.578;2023-09-08T03:03:44;5.40;;;2.90;;
31676;SDS011;18385;51.572;6.578;2023-09-08T03:06:10;5.25;;;2.72;;
31676;SDS011;18385;51.572;6.578;2023-09-08T03:08:38;4.23;;;2.60;;
31676;SDS011;18385;51.572;6.578;2023-09-08T03:11:04;4.57;;;2.80;;
31676;SDS011;18385;51.572;6.578;2023-09-08T03:13:31;12.18;;;3.38;;
31676;SDS011;18385;51.572;6.578;2023-09-08T03:16:02;4.78;;;2.38;;
31676;SDS011;18385;51.572;6.578;2023-09-08T03:18:29;5.22;;;2.78;;
31676;SDS011;18385;51.572;6.578;2023-09-08T03:20:54;4.20;;;2.63;;
31676;SDS011;18385;51.572;6.578;2023-09-08T03:23:21;5.03;;;3.20;;
31676;SDS011;18385;51.572;6.578;2023-09-08T03:25:48;5.70;;;3.67;;
31676;SDS011;18385;51.572;6.578;2023-09-08T03:28:14;4.95;;;2.65;;
31676;SDS011;18385;51.572;6.578;2023-09-08T03:30:40;4.35;;;2.58;;
31676;SDS011;18385;51.572;6.578;2023-09-08T03:33:06;7.32;;;3.22;;
31676;SDS011;18385;51.572;6.578;2023-09-08T03:35:32;6.03;;;2.70;;
31676;SDS011;18385;51.572;6.578;2023-09-08T03:37:57;6.35;;;3.00;;
31676;SDS011;18385;51.572;6.578;2023-09-08T03:40:23;5.80;;;2.58;;
31676;SDS011;18385;51.572;6.578;2023-09-08T03:42:49;5.72;;;2.80;;
31676;SDS011;18385;51.572;6.578;2023-09-08T03:45:15;6.70;;;2.78;;
31676;SDS011;18385;51.572;6.578;2023-09-08T03:47:41;5.95;;;2.90;;
31676;SDS011;18385;51.572;6.578;2023-09-08T03:50:07;6.40;;;2.80;;
31676;SDS011;18385;51.572;6.578;2023-09-08T03:52:33;6.15;;;2.70;;
31676;SDS011;18385;51.572;6.578;2023-09-08T03:54:58;4.32;;;2.28;;
31676;SDS011;18385;51.572;6.578;2023-09-08T03:57:24;6.22;;;2.88;;
31676;SDS011;18385;51.572;6.578;2023-09-08T03:59:50;4.03;;;2.47;;
31676;SDS011;18385;51.572;6.578;2023-09-08T04:02:15;4.63;;;2.58;;
31676;SDS011;18385;51.572;6.578;2023-09-08T04:04:41;5.43;;;2.67;;
31676;SDS011;18385;51.572;6.578;2023-09-08T04:07:07;5.88;;;2.80;;
31676;SDS011;18385;51.572;6.578;2023-09-08T04:09:33;9.98;;;3.45;;
31676;SDS011;18385;51.572;6.578;2023-09-08T04:11:59;5.78;;;3.10;;
31676;SDS011;18385;51.572;6.578;2023-09-08T04:14:24;5.07;;;2.70;;
31676;SDS011;18385;51.572;6.578;2023-09-08T04:16:52;4.88;;;2.88;;
31676;SDS011;18385;51.572;6.578;2023-09-08T04:19:18;6.18;;;2.70;;
31676;SDS011;18385;51.572;6.578;2023-09-08T04:21:44;5.80;;;2.85;;
31676;SDS011;18385;51.572;6.578;2023-09-08T04:24:09;4.07;;;2.20;;
31676;SDS011;18385;51.572;6.578;2023-09-08T04:26:36;4.95;;;3.00;;
31676;SDS011;18385;51.572;6.578;2023-09-08T04:29:02;14.38;;;3.92;;
31676;SDS011;18385;51.572;6.578;2023-09-08T04:31:28;6.18;;;2.88;;
31676;SDS011;18385;51.572;6.578;2023-09-08T04:33:54;6.72;;;3.13;;
31676;SDS011;18385;51.572;6.578;2023-09-08T04:36:20;5.22;;;2.60;;
31676;SDS011;18385;51.572;6.578;2023-09-08T04:38:45;4.97;;;2.75;;
31676;SDS011;18385;51.572;6.578;2023-09-08T04:41:11;6.03;;;2.85;;
31676;SDS011;18385;51.572;6.578;2023-09-08T04:43:37;8.30;;;3.47;;
31676;SDS011;18385;51.572;6.578;2023-09-08T04:46:03;6.50;;;3.10;;
31676;SDS011;18385;51.572;6.578;2023-09-08T04:48:30;7.22;;;3.10;;
31676;SDS011;18385;51.572;6.578;2023-09-08T04:50:56;6.15;;;2.85;;
31676;SDS011;18385;51.572;6.578;2023-09-08T04:53:22;4.13;;;2.25;;
31676;SDS011;18385;51.572;6.578;2023-09-08T04:55:48;5.57;;;3.08;;
31676;SDS011;18385;51.572;6.578;2023-09-08T04:58:13;5.82;;;2.97;;
31676;SDS011;18385;51.572;6.578;2023-09-08T05:00:39;4.63;;;2.63;;
31676;SDS011;18385;51.572;6.578;2023-09-08T05:03:05;5.22;;;2.90;;
31676;SDS011;18385;51.572;6.578;2023-09-08T05:05:31;4.38;;;2.83;;
31676;SDS011;18385;51.572;6.578;2023-09-08T05:07:57;4.88;;;2.92;;
31676;SDS011;18385;51.572;6.578;2023-09-08T05:10:24;5.13;;;2.63;;
31676;SDS011;18385;51.572;6.578;2023-09-08T05:12:50;5.97;;;3.08;;
31676;SDS011;18385;51.572;6.578;2023-09-08T05:15:16;5.82;;;2.83;;
31676;SDS011;18385;51.572;6.578;2023-09-08T05:17:48;9.40;;;3.38;;
31676;SDS011;18385;51.572;6.578;2023-09-08T05:20:15;5.63;;;3.47;;
31676;SDS011;18385;51.572;6.578;2023-09-08T05:22:41;5.00;;;2.90;;
31676;SDS011;18385;51.572;6.578;2023-09-08T05:25:07;7.13;;;3.17;;
31676;SDS011;18385;51.572;6.578;2023-09-08T05:27:34;5.47;;;2.97;;
31676;SDS011;18385;51.572;6.578;2023-09-08T05:30:00;7.70;;;3.70;;
31676;SDS011;18385;51.572;6.578;2023-09-08T05:32:25;6.40;;;3.47;;
31676;SDS011;18385;51.572;6.578;2023-09-08T05:34:52;6.43;;;3.35;;
31676;SDS011;18385;51.572;6.578;2023-09-08T05:37:18;7.97;;;4.20;;
31676;SDS011;18385;51.572;6.578;2023-09-08T05:39:44;5.75;;;2.85;;
31676;SDS011;18385;51.572;6.578;2023-09-08T05:42:10;6.32;;;3.28;;
31676;SDS011;18385;51.572;6.578;2023-09-08T05:44:35;7.75;;;4.22;;
31676;SDS011;18385;51.572;6.578;2023-09-08T05:47:01;6.63;;;3.47;;
31676;SDS011;18385;51.572;6.578;2023-09-08T05:49:27;4.97;;;3.08;;
31676;SDS011;18385;51.572;6.578;2023-09-08T05:51:53;5.55;;;3.67;;
31676;SDS011;18385;51.572;6.578;2023-09-08T05:54:20;7.32;;;3.28;;
31676;SDS011;18385;51.572;6.578;2023-09-08T05:56:46;7.63;;;3.38;;
31676;SDS011;18385;51.572;6.578;2023-09-08T05:59:12;7.72;;;3.70;;
31676;SDS011;18385;51.572;6.578;2023-09-08T06:01:39;4.88;;;2.85;;
31676;SDS011;18385;51.572;6.578;2023-09-08T06:04:07;9.18;;;3.83;;
31676;SDS011;18385;51.572;6.578;2023-09-08T06:06:33;9.02;;;4.15;;
31676;SDS011;18385;51.572;6.578;2023-09-08T06:08:59;8.13;;;4.00;;
31676;SDS011;18385;51.572;6.578;2023-09-08T06:11:26;7.40;;;4.10;;
31676;SDS011;18385;51.572;6.578;2023-09-08T06:13:51;6.65;;;3.20;;
31676;SDS011;18385;51.572;6.578;2023-09-08T06:16:21;9.80;;;3.97;;
31676;SDS011;18385;51.572;6.578;2023-09-08T06:18:47;7.15;;;4.15;;
31676;SDS011;18385;51.572;6.578;2023-09-08T06:21:16;8.07;;;3.60;;
31676;SDS011;18385;51.572;6.578;2023-09-08T06:23:42;8.38;;;4.13;;
31676;SDS011;18385;51.572;6.578;2023-09-08T06:26:08;6.63;;;3.22;;
31676;SDS011;18385;51.572;6.578;2023-09-08T06:28:36;6.70;;;3.30;;
31676;SDS011;18385;51.572;6.578;2023-09-08T06:31:02;6.63;;;3.97;;
31676;SDS011;18385;51.572;6.578;2023-09-08T06:33:29;7.20;;;3.75;;
31676;SDS011;18385;51.572;6.578;2023-09-08T06:35:55;7.93;;;3.28;;
31676;SDS011;18385;51.572;6.578;2023-09-08T06:38:21;7.50;;;3.65;;
31676;SDS011;18385;51.572;6.578;2023-09-08T06:40:47;6.60;;;3.20;;
31676;SDS011;18385;51.572;6.578;2023-09-08T06:43:13;8.85;;;4.07;;
31676;SDS011;18385;51.572;6.578;2023-09-08T06:45:49;7.18;;;3.33;;
31676;SDS011;18385;51.572;6.578;2023-09-08T06:48:15;8.00;;;3.90;;
31676;SDS011;18385;51.572;6.578;2023-09-08T06:50:41;9.32;;;3.75;;
31676;SDS011;18385;51.572;6.578;2023-09-08T06:53:07;7.30;;;4.00;;
31676;SDS011;18385;51.572;6.578;2023-09-08T06:55:34;8.48;;;4.10;;
31676;SDS011;18385;51.572;6.578;2023-09-08T06:58:00;8.15;;;4.25;;
31676;SDS011;18385;51.572;6.578;2023-09-08T07:00:25;6.90;;;3.63;;
31676;SDS011;18385;51.572;6.578;2023-09-08T07:02:52;8.85;;;4.03;;
31676;SDS011;18385;51.572;6.578;2023-09-08T07:05:18;10.05;;;4.40;;
31676;SDS011;18385;51.572;6.578;2023-09-08T07:07:44;10.25;;;4.65;;
31676;SDS011;18385;51.572;6.578;2023-09-08T07:10:10;9.80;;;5.00;;
31676;SDS011;18385;51.572;6.578;2023-09-08T07:12:36;9.15;;;3.85;;
31676;SDS011;18385;51.572;6.578;2023-09-08T07:15:01;7.18;;;3.80;;
31676;SDS011;18385;51.572;6.578;2023-09-08T07:17:27;8.95;;;4.78;;
31676;SDS011;18385;51.572;6.578;2023-09-08T07:19:53;8.90;;;4.95;;
31676;SDS011;18385;51.572;6.578;2023-09-08T07:22:20;9.45;;;3.90;;
31676;SDS011;18385;51.572;6.578;2023-09-08T07:24:45;9.40;;;4.03;;
31676;SDS011;18385;51.572;6.578;2023-09-08T07:27:12;9.85;;;4.32;;
31676;SDS011;18385;51.572;6.578;2023-09-08T07:29:40;8.85;;;5.13;;
31676;SDS011;18385;51.572;6.578;2023-09-08T07:32:06;8.30;;;4.13;;
31676;SDS011;18385;51.572;6.578;2023-09-08T07:34:32;8.98;;;4.38;;
31676;SDS011;18385;51.572;6.578;2023-09-08T07:36:59;9.63;;;4.35;;
31676;SDS011;18385;51.572;6.578;2023-09-08T07:39:26;7.13;;;4.20;;
31676;SDS011;18385;51.572;6.578;2023-09-08T07:41:52;7.70;;;4.00;;
31676;SDS011;18385;51.572;6.578;2023-09-08T07:44:18;10.32;;;4.45;;
31676;SDS011;18385;51.572;6.578;2023-09-08T07:46:44;12.80;;;4.68;;
31676;SDS011;18385;51.572;6.578;2023-09-08T07:49:11;10.35;;;4.57;;
31676;SDS011;18385;51.572;6.578;2023-09-08T07:51:37;8.82;;;4.05;;
31676;SDS011;18385;51.572;6.578;2023-09-08T07:54:03;8.98;;;4.57;;
31676;SDS011;18385;51.572;6.578;2023-09-08T07:56:30;13.25;;;4.47;;
31676;SDS011;18385;51.572;6.578;2023-09-08T07:58:55;8.23;;;4.03;;
31676;SDS011;18385;51.572;6.578;2023-09-08T08:01:21;8.20;;;3.85;;
31676;SDS011;18385;51.572;6.578;2023-09-08T08:03:47;7.40;;;3.60;;
31676;SDS011;18385;51.572;6.578;2023-09-08T08:06:13;6.82;;;3.40;;
31676;SDS011;18385;51.572;6.578;2023-09-08T08:08:39;8.20;;;3.78;;
31676;SDS011;18385;51.572;6.578;2023-09-08T08:11:09;8.55;;;3.35;;
31676;SDS011;18385;51.572;6.578;2023-09-08T08:13:36;9.85;;;3.25;;
31676;SDS011;18385;51.572;6.578;2023-09-08T08:16:02;6.65;;;2.58;;
31676;SDS011;18385;51.572;6.578;2023-09-08T08:18:27;5.13;;;2.40;;
31676;SDS011;18385;51.572;6.578;2023-09-08T08:20:53;3.88;;;2.33;;
31676;SDS011;18385;51.572;6.578;2023-09-08T08:23:19;4.53;;;2.60;;
31676;SDS011;18385;51.572;6.578;2023-09-08T08:25:44;5.18;;;2.38;;
31676;SDS011;18385;51.572;6.578;2023-09-08T08:28:10;5.55;;;2.50;;
31676;SDS011;18385;51.572;6.578;2023-09-08T08:30:35;5.47;;;2.47;;
31676;SDS011;18385;51.572;6.578;2023-09-08T08:33:01;3.67;;;2.20;;
31676;SDS011;18385;51.572;6.578;2023-09-08T08:35:28;8.40;;;2.65;;
31676;SDS011;18385;51.572;6.578;2023-09-08T08:37:53;5.28;;;2.35;;
31676;SDS011;18385;51.572;6.578;2023-09-08T08:40:19;4.55;;;2.10;;
31676;SDS011;18385;51.572;6.578;2023-09-08T08:42:45;5.30;;;2.28;;
31676;SDS011;18385;51.572;6.578;2023-09-08T08:45:11;2.80;;;1.95;;
31676;SDS011;18385;51.572;6.578;2023-09-08T08:47:37;3.90;;;2.50;;
31676;SDS011;18385;51.572;6.578;2023-09-08T08:50:04;4.65;;;2.45;;
31676;SDS011;18385;51.572;6.578;2023-09-08T08:52:30;6.80;;;2.22;;
31676;SDS011;18385;51.572;6.578;2023-09-08T08:54:56;5.05;;;2.35;;
31676;SDS011;18385;51.572;6.578;2023-09-08T08:57:22;4.70;;;2.33;;
31676;SDS011;18385;51.572;6.578;2023-09-08T08:59:49;5.32;;;2.30;;
31676;SDS011;18385;51.572;6.578;2023-09-08T09:02:16;19.05;;;2.17;;
31676;SDS011;18385;51.572;6.578;2023-09-08T09:04:43;4.82;;;2.17;;
31676;SDS011;18385;51.572;6.578;2023-09-08T09:07:09;4.43;;;2.20;;
31676;SDS011;18385;51.572;6.578;2023-09-08T09:09:36;3.30;;;2.22;;
31676;SDS011;18385;51.572;6.578;2023-09-08T09:12:01;6.47;;;2.00;;
31676;SDS011;18385;51.572;6.578;2023-09-08T09:14:31;4.55;;;2.00;;
31676;SDS011;18385;51.572;6.578;2023-09-08T09:16:58;3.70;;;2.08;;
31676;SDS011;18385;51.572;6.578;2023-09-08T09:19:25;9.02;;;2.35;;
31676;SDS011;18385;51.572;6.578;2023-09-08T09:21:52;7.35;;;2.90;;
31676;SDS011;18385;51.572;6.578;2023-09-08T09:24:29;7.60;;;2.92;;
31676;SDS011;18385;51.572;6.578;2023-09-08T09:27:00;7.25;;;2.20;;
31676;SDS011;18385;51.572;6.578;2023-09-08T09:29:27;9.55;;;2.60;;
31676;SDS011;18385;51.572;6.578;2023-09-08T09:31:55;5.55;;;1.95;;
31676;SDS011;18385;51.572;6.578;2023-09-08T09:34:23;10.93;;;1.98;;
31676;SDS011;18385;51.572;6.578;2023-09-08T09:36:49;3.47;;;1.85;;
31676;SDS011;18385;51.572;6.578;2023-09-08T09:39:16;5.93;;;2.53;;
31676;SDS011;18385;51.572;6.578;2023-09-08T09:41:44;12.25;;;2.72;;
31676;SDS011;18385;51.572;6.578;2023-09-08T09:44:10;7.22;;;2.90;;
31676;SDS011;18385;51.572;6.578;2023-09-08T09:46:36;14.77;;;3.85;;
31676;SDS011;18385;51.572;6.578;2023-09-08T09:49:02;5.90;;;3.47;;
31676;SDS011;18385;51.572;6.578;2023-09-08T09:51:28;4.30;;;1.90;;
31676;SDS011;18385;51.572;6.578;2023-09-08T09:53:54;3.60;;;1.90;;
31676;SDS011;18385;51.572;6.578;2023-09-08T09:56:20;4.53;;;2.05;;
31676;SDS011;18385;51.572;6.578;2023-09-08T09:58:48;3.67;;;1.70;;
31676;SDS011;18385;51.572;6.578;2023-09-08T10:01:16;5.40;;;2.17;;
31676;SDS011;18385;51.572;6.578;2023-09-08T10:03:43;4.43;;;2.05;;
31676;SDS011;18385;51.572;6.578;2023-09-08T10:06:09;4.20;;;1.85;;
31676;SDS011;18385;51.572;6.578;2023-09-08T10:08:36;4.70;;;2.10;;
31676;SDS011;18385;51.572;6.578;2023-09-08T10:11:05;5.20;;;1.90;;
31676;SDS011;18385;51.572;6.578;2023-09-08T10:13:38;3.72;;;2.08;;
31676;SDS011;18385;51.572;6.578;2023-09-08T10:16:08;2.67;;;1.70;;
31676;SDS011;18385;51.572;6.578;2023-09-08T10:18:34;4.15;;;1.90;;
31676;SDS011;18385;51.572;6.578;2023-09-08T10:21:01;10.82;;;2.13;;
31676;SDS011;18385;51.572;6.578;2023-09-08T10:23:54;6.55;;;1.90;;
31676;SDS011;18385;51.572;6.578;2023-09-08T10:26:22;4.45;;;2.38;;
31676;SDS011;18385;51.572;6.578;2023-09-08T10:28:53;8.13;;;2.25;;
31676;SDS011;18385;51.572;6.578;2023-09-08T10:31:22;3.80;;;1.90;;
31676;SDS011;18385;51.572;6.578;2023-09-08T10:33:50;4.63;;;2.15;;
31676;SDS011;18385;51.572;6.578;2023-09-08T10:36:15;3.53;;;1.80;;
31676;SDS011;18385;51.572;6.578;2023-09-08T10:38:41;3.95;;;1.73;;
31676;SDS011;18385;51.572;6.578;2023-09-08T10:43:44;4.30;;;1.75;;
31676;SDS011;18385;51.572;6.578;2023-09-08T10:46:32;6.70;;;2.20;;
31676;SDS011;18385;51.572;6.578;2023-09-08T10:49:01;5.95;;;1.80;;
31676;SDS011;18385;51.572;6.578;2023-09-08T10:51:32;3.85;;;2.00;;
31676;SDS011;18385;51.572;6.578;2023-09-08T10:54:00;3.60;;;1.73;;
31676;SDS011;18385;51.572;6.578;2023-09-08T10:57:09;3.88;;;2.10;;
31676;SDS011;18385;51.572;6.578;2023-09-08T10:59:22;4.15;;;2.45;;
31676;SDS011;18385;51.572;6.578;2023-09-08T11:01:54;3.58;;;2.00;;
31676;SDS011;18385;51.572;6.578;2023-09-08T11:04:19;4.75;;;2.45;;
31676;SDS011;18385;51.572;6.578;2023-09-08T11:06:47;5.32;;;2.20;;
31676;SDS011;18385;51.572;6.578;2023-09-08T11:09:14;3.42;;;2.00;;
31676;SDS011;18385;51.572;6.578;2023-09-08T11:11:41;4.85;;;2.25;;
31676;SDS011;18385;51.572;6.578;2023-09-08T11:14:07;3.42;;;1.80;;
31676;SDS011;18385;51.572;6.578;2023-09-08T11:16:32;8.00;;;2.65;;
31676;SDS011;18385;51.572;6.578;2023-09-08T11:18:58;2.78;;;1.63;;
31676;SDS011;18385;51.572;6.578;2023-09-08T11:21:26;7.25;;;2.38;;
31676;SDS011;18385;51.572;6.578;2023-09-08T11:23:58;4.28;;;1.75;;
31676;SDS011;18385;51.572;6.578;2023-09-08T11:26:23;2.88;;;1.90;;
31676;SDS011;18385;51.572;6.578;2023-09-08T11:28:49;4.65;;;2.30;;
31676;SDS011;18385;51.572;6.578;2023-09-08T11:31:15;4.45;;;1.92;;
31676;SDS011;18385;51.572;6.578;2023-09-08T11:33:42;3.47;;;2.15;;
31676;SDS011;18385;51.572;6.578;2023-09-08T11:36:14;4.32;;;1.95;;
31676;SDS011;18385;51.572;6.578;2023-09-08T11:38:41;3.78;;;2.30;;
31676;SDS011;18385;51.572;6.578;2023-09-08T11:41:07;4.68;;;1.85;;
31676;SDS011;18385;51.572;6.578;2023-09-08T11:43:33;4.28;;;2.22;;
31676;SDS011;18385;51.572;6.578;2023-09-08T11:45:59;3.60;;;2.00;;
31676;SDS011;18385;51.572;6.578;2023-09-08T11:48:25;3.63;;;1.92;;
31676;SDS011;18385;51.572;6.578;2023-09-08T11:50:55;2.88;;;1.70;;
31676;SDS011;18385;51.572;6.578;2023-09-08T11:53:20;3.85;;;2.25;;
31676;SDS011;18385;51.572;6.578;2023-09-08T11:55:47;7.63;;;1.80;;
31676;SDS011;18385;51.572;6.578;2023-09-08T11:58:14;3.80;;;2.35;;
31676;SDS011;18385;51.572;6.578;2023-09-08T12:00:40;3.58;;;1.83;;
31676;SDS011;18385;51.572;6.578;2023-09-08T12:03:13;2.78;;;1.55;;
31676;SDS011;18385;51.572;6.578;2023-09-08T12:05:40;3.95;;;2.20;;
31676;SDS011;18385;51.572;6.578;2023-09-08T12:08:07;4.00;;;2.00;;
31676;SDS011;18385;51.572;6.578;2023-09-08T12:10:42;4.30;;;1.65;;
31676;SDS011;18385;51.572;6.578;2023-09-08T12:13:08;3.90;;;2.25;;
31676;SDS011;18385;51.572;6.578;2023-09-08T12:15:38;5.80;;;2.10;;
31676;SDS011;18385;51.572;6.578;2023-09-08T12:18:06;2.88;;;1.75;;
31676;SDS011;18385;51.572;6.578;2023-09-08T12:20:33;3.88;;;2.20;;
31676;SDS011;18385;51.572;6.578;2023-09-08T12:23:04;2.35;;;1.55;;
31676;SDS011;18385;51.572;6.578;2023-09-08T12:25:32;5.43;;;1.92;;
31676;SDS011;18385;51.572;6.578;2023-09-08T12:27:59;4.32;;;2.00;;
31676;SDS011;18385;51.572;6.578;2023-09-08T12:30:25;2.60;;;1.85;;
31676;SDS011;18385;51.572;6.578;2023-09-08T12:32:57;3.90;;;2.05;;
31676;SDS011;18385;51.572;6.578;2023-09-08T12:35:24;3.45;;;1.70;;
31676;SDS011;18385;51.572;6.578;2023-09-08T12:38:01;5.50;;;2.42;;
31676;SDS011;18385;51.572;6.578;2023-09-08T12:40:28;3.22;;;2.20;;
31676;SDS011;18385;51.572;6.578;2023-09-08T12:42:56;3.00;;;1.85;;
31676;SDS011;18385;51.572;6.578;2023-09-08T12:45:23;4.65;;;1.95;;
31676;SDS011;18385;51.572;6.578;2023-09-08T12:47:50;3.67;;;2.13;;
31676;SDS011;18385;51.572;6.578;2023-09-08T12:50:16;4.28;;;2.45;;
31676;SDS011;18385;51.572;6.578;2023-09-08T12:52:42;4.25;;;2.50;;
31676;SDS011;18385;51.572;6.578;2023-09-08T12:55:08;5.25;;;2.40;;
31676;SDS011;18385;51.572;6.578;2023-09-08T12:57:35;3.83;;;2.30;;
31676;SDS011;18385;51.572;6.578;2023-09-08T13:00:01;2.75;;;1.73;;
31676;SDS011;18385;51.572;6.578;2023-09-08T13:02:30;6.32;;;2.28;;
31676;SDS011;18385;51.572;6.578;2023-09-08T13:04:56;3.85;;;2.00;;
31676;SDS011;18385;51.572;6.578;2023-09-08T13:07:23;5.50;;;2.55;;
31676;SDS011;18385;51.572;6.578;2023-09-08T13:09:49;5.63;;;2.70;;
31676;SDS011;18385;51.572;6.578;2023-09-08T13:12:15;3.50;;;2.13;;
31676;SDS011;18385;51.572;6.578;2023-09-08T13:14:41;3.63;;;2.13;;
31676;SDS011;18385;51.572;6.578;2023-09-08T13:17:08;4.03;;;1.83;;
31676;SDS011;18385;51.572;6.578;2023-09-08T13:19:40;2.90;;;1.88;;
31676;SDS011;18385;51.572;6.578;2023-09-08T13:22:06;3.75;;;1.80;;
31676;SDS011;18385;51.572;6.578;2023-09-08T13:24:32;5.85;;;1.80;;
31676;SDS011;18385;51.572;6.578;2023-09-08T13:26:59;4.35;;;1.95;;
31676;SDS011;18385;51.572;6.578;2023-09-08T13:29:25;4.03;;;1.85;;
31676;SDS011;18385;51.572;6.578;2023-09-08T13:31:54;3.03;;;1.80;;
31676;SDS011;18385;51.572;6.578;2023-09-08T13:34:23;4.03;;;2.15;;
31676;SDS011;18385;51.572;6.578;2023-09-08T13:36:49;3.78;;;2.13;;
31676;SDS011;18385;51.572;6.578;2023-09-08T13:39:14;4.07;;;2.13;;
31676;SDS011;18385;51.572;6.578;2023-09-08T13:42:13;4.20;;;2.33;;
31676;SDS011;18385;51.572;6.578;2023-09-08T13:44:33;5.75;;;1.98;;
31676;SDS011;18385;51.572;6.578;2023-09-08T13:46:59;5.70;;;2.30;;
31676;SDS011;18385;51.572;6.578;2023-09-08T13:49:25;2.55;;;2.10;;
31676;SDS011;18385;51.572;6.578;2023-09-08T13:51:51;5.55;;;2.28;;
31676;SDS011;18385;51.572;6.578;2023-09-08T13:54:18;3.03;;;1.95;;
31676;SDS011;18385;51.572;6.578;2023-09-08T13:56:44;2.35;;;1.65;;
31676;SDS011;18385;51.572;6.578;2023-09-08T13:59:09;4.70;;;2.08;;
31676;SDS011;18385;51.572;6.578;2023-09-08T14:01:36;4.47;;;1.80;;
31676;SDS011;18385;51.572;6.578;2023-09-08T14:04:02;3.65;;;2.35;;
31676;SDS011;18385;51.572;6.578;2023-09-08T14:06:31;4.60;;;2.03;;
31676;SDS011;18385;51.572;6.578;2023-09-08T14:08:57;3.13;;;1.73;;
31676;SDS011;18385;51.572;6.578;2023-09-08T14:11:22;2.28;;;1.60;;
31676;SDS011;18385;51.572;6.578;2023-09-08T14:13:48;2.88;;;1.85;;
31676;SDS011;18385;51.572;6.578;2023-09-08T14:16:14;4.03;;;1.90;;
31676;SDS011;18385;51.572;6.578;2023-09-08T14:18:40;2.88;;;2.10;;
31676;SDS011;18385;51.572;6.578;2023-09-08T14:21:08;3.83;;;1.65;;
31676;SDS011;18385;51.572;6.578;2023-09-08T14:23:34;2.72;;;2.22;;
31676;SDS011;18385;51.572;6.578;2023-09-08T14:25:59;3.72;;;2.00;;
31676;SDS011;18385;51.572;6.578;2023-09-08T14:28:25;4.93;;;1.90;;
31676;SDS011;18385;51.572;6.578;2023-09-08T14:30:54;3.90;;;2.20;;
31676;SDS011;18385;51.572;6.578;2023-09-08T14:33:20;2.38;;;1.98;;
31676;SDS011;18385;51.572;6.578;2023-09-08T14:35:45;5.75;;;1.85;;
31676;SDS011;18385;51.572;6.578;2023-09-08T14:38:16;2.72;;;2.08;;
31676;SDS011;18385;51.572;6.578;2023-09-08T14:40:42;4.00;;;1.85;;
31676;SDS011;18385;51.572;6.578;2023-09-08T14:43:08;2.30;;;1.90;;
31676;SDS011;18385;51.572;6.578;2023-09-08T14:45:34;2.08;;;1.70;;
31676;SDS011;18385;51.572;6.578;2023-09-08T14:48:00;3.53;;;2.05;;
31676;SDS011;18385;51.572;6.578;2023-09-08T14:50:25;2.28;;;1.80;;
31676;SDS011;18385;51.572;6.578;2023-09-08T14:52:51;3.72;;;2.00;;